sensor_id;sensor_type;location;lat;lon;timestamp;pressure;altitude;pressure_sealevel;temperature;humidity
15604;BME280;7902;49.042;9.092;2023-08-17T00:00:44;99171.91;;;26.02;65.01
15604;BME280;7902;49.042;9.092;2023-08-17T00:03:11;99174.59;;;26.02;64.91
15604;BME280;7902;49.042;9.092;2023-08-17T00:05:36;99175.41;;;25.96;65.11
15604;BME280;7902;49.042;9.092;2023-08-17T00:08:03;99178.53;;;25.93;65.27
15604;BME280;7902;49.042;9.092;2023-08-17T00:10:28;99178.75;;;25.98;65.34
15604;BME280;7902;49.042;9.092;2023-08-17T00:12:54;99179.34;;;26.00;65.39
15604;BME280;7902;49.042;9.092;2023-08-17T00:15:20;99176.66;;;26.06;64.79
15604;BME280;7902;49.042;9.092;2023-08-17T00:17:46;99180.38;;;26.12;64.50
15604;BME280;7902;49.042;9.092;2023-08-17T00:20:12;99177.28;;;26.02;65.37
15604;BME280;7902;49.042;9.092;2023-08-17T00:22:38;99183.50;;;25.96;65.36
15604;BME280;7902;49.042;9.092;2023-08-17T00:25:04;99188.25;;;25.94;65.56
15604;BME280;7902;49.042;9.092;2023-08-17T00:27:33;99185.75;;;25.86;65.62
15604;BME280;7902;49.042;9.092;2023-08-17T00:29:59;99185.16;;;25.77;65.53
15604;BME280;7902;49.042;9.092;2023-08-17T00:32:25;99189.09;;;25.74;65.96
15604;BME280;7902;49.042;9.092;2023-08-17T00:34:51;99190.13;;;25.73;65.76
15604;BME280;7902;49.042;9.092;2023-08-17T00:37:17;99193.44;;;25.75;65.29
15604;BME280;7902;49.042;9.092;2023-08-17T00:39:43;99188.88;;;25.69;65.69
15604;BME280;7902;49.042;9.092;2023-08-17T00:42:08;99191.34;;;25.71;65.87
15604;BME280;7902;49.042;9.092;2023-08-17T00:44:35;99178.31;;;25.68;65.70
15604;BME280;7902;49.042;9.092;2023-08-17T00:47:01;99183.72;;;25.74;65.68
15604;BME280;7902;49.042;9.092;2023-08-17T00:49:27;99181.81;;;25.55;65.99
15604;BME280;7902;49.042;9.092;2023-08-17T00:51:53;99171.06;;;25.55;66.22
15604;BME280;7902;49.042;9.092;2023-08-17T00:54:25;99168.38;;;25.55;65.65
15604;BME280;7902;49.042;9.092;2023-08-17T00:56:53;99172.28;;;25.46;65.78
15604;BME280;7902;49.042;9.092;2023-08-17T00:59:21;99177.84;;;25.45;66.17
15604;BME280;7902;49.042;9.092;2023-08-17T01:01:48;99178.03;;;25.43;66.01
15604;BME280;7902;49.042;9.092;2023-08-17T01:04:14;99173.72;;;25.42;66.02
15604;BME280;7902;49.042;9.092;2023-08-17T01:06:40;99172.44;;;25.38;66.10
15604;BME280;7902;49.042;9.092;2023-08-17T01:09:06;99168.72;;;25.39;66.05
15604;BME280;7902;49.042;9.092;2023-08-17T01:11:48;99176.56;;;25.34;66.14
15604;BME280;7902;49.042;9.092;2023-08-17T01:14:31;99166.88;;;25.33;66.24
15604;BME280;7902;49.042;9.092;2023-08-17T01:17:19;99162.94;;;25.35;66.35
15604;BME280;7902;49.042;9.092;2023-08-17T01:19:49;99172.03;;;25.28;66.56
15604;BME280;7902;49.042;9.092;2023-08-17T01:22:17;99178.63;;;25.25;66.58
15604;BME280;7902;49.042;9.092;2023-08-17T01:24:46;99177.00;;;25.31;66.43
15604;BME280;7902;49.042;9.092;2023-08-17T01:27:12;99172.66;;;25.30;66.56
15604;BME280;7902;49.042;9.092;2023-08-17T01:29:38;99168.72;;;25.26;66.54
15604;BME280;7902;49.042;9.092;2023-08-17T01:32:16;99166.66;;;25.28;66.45
15604;BME280;7902;49.042;9.092;2023-08-17T01:34:57;99163.56;;;25.31;66.37
15604;BME280;7902;49.042;9.092;2023-08-17T01:37:27;99170.81;;;25.44;66.20
15604;BME280;7902;49.042;9.092;2023-08-17T01:39:56;99169.56;;;25.33;66.31
15604;BME280;7902;49.042;9.092;2023-08-17T01:42:24;99175.34;;;25.43;66.29
15604;BME280;7902;49.042;9.092;2023-08-17T01:44:50;99160.66;;;25.39;66.50
15604;BME280;7902;49.042;9.092;2023-08-17T01:47:20;99166.88;;;25.40;66.06
15604;BME280;7902;49.042;9.092;2023-08-17T01:49:47;99164.59;;;25.37;66.22
15604;BME280;7902;49.042;9.092;2023-08-17T01:52:12;99164.38;;;25.38;65.95
15604;BME280;7902;49.042;9.092;2023-08-17T01:54:38;99162.97;;;25.42;65.84
15604;BME280;7902;49.042;9.092;2023-08-17T01:57:04;99164.59;;;25.43;65.56
15604;BME280;7902;49.042;9.092;2023-08-17T01:59:30;99152.81;;;25.44;65.45
15604;BME280;7902;49.042;9.092;2023-08-17T02:01:56;99155.06;;;25.34;65.91
15604;BME280;7902;49.042;9.092;2023-08-17T02:04:22;99152.41;;;25.41;65.31
15604;BME280;7902;49.042;9.092;2023-08-17T02:06:48;99154.69;;;25.37;65.34
15604;BME280;7902;49.042;9.092;2023-08-17T02:09:14;99141.25;;;25.37;65.37
15604;BME280;7902;49.042;9.092;2023-08-17T02:11:39;99144.31;;;25.34;65.38
15604;BME280;7902;49.042;9.092;2023-08-17T02:14:05;99137.72;;;25.37;65.17
15604;BME280;7902;49.042;9.092;2023-08-17T02:16:31;99138.53;;;25.30;65.39
15604;BME280;7902;49.042;9.092;2023-08-17T02:18:57;99140.16;;;25.25;65.60
15604;BME280;7902;49.042;9.092;2023-08-17T02:21:23;99137.69;;;25.30;65.65
15604;BME280;7902;49.042;9.092;2023-08-17T02:23:49;99135.44;;;25.27;65.61
15604;BME280;7902;49.042;9.092;2023-08-17T02:26:15;99133.56;;;25.27;65.63
15604;BME280;7902;49.042;9.092;2023-08-17T02:28:41;99129.44;;;25.31;65.38
15604;BME280;7902;49.042;9.092;2023-08-17T02:31:07;99121.19;;;25.33;65.28
15604;BME280;7902;49.042;9.092;2023-08-17T02:33:32;99126.13;;;25.36;65.57
15604;BME280;7902;49.042;9.092;2023-08-17T02:35:59;99109.78;;;25.31;65.40
15604;BME280;7902;49.042;9.092;2023-08-17T02:38:25;99123.22;;;25.31;65.58
15604;BME280;7902;49.042;9.092;2023-08-17T02:40:51;99120.75;;;25.36;65.59
15604;BME280;7902;49.042;9.092;2023-08-17T02:43:17;99119.91;;;25.29;64.87
15604;BME280;7902;49.042;9.092;2023-08-17T02:45:42;99119.91;;;25.29;65.64
15604;BME280;7902;49.042;9.092;2023-08-17T02:48:08;99122.00;;;25.27;65.64
15604;BME280;7902;49.042;9.092;2023-08-17T02:50:34;99120.75;;;25.23;65.86
15604;BME280;7902;49.042;9.092;2023-08-17T02:53:00;99114.75;;;25.21;66.10
15604;BME280;7902;49.042;9.092;2023-08-17T02:55:28;99115.75;;;25.20;65.82
15604;BME280;7902;49.042;9.092;2023-08-17T02:57:53;99119.09;;;25.22;65.70
15604;BME280;7902;49.042;9.092;2023-08-17T03:00:19;99115.38;;;25.23;65.56
15604;BME280;7902;49.042;9.092;2023-08-17T03:02:45;99112.91;;;25.28;65.67
15604;BME280;7902;49.042;9.092;2023-08-17T03:05:11;99107.69;;;25.20;65.83
15604;BME280;7902;49.042;9.092;2023-08-17T03:07:37;99104.84;;;25.28;65.38
15604;BME280;7902;49.042;9.092;2023-08-17T03:10:03;99103.19;;;25.27;65.58
15604;BME280;7902;49.042;9.092;2023-08-17T03:12:29;99097.56;;;25.28;65.56
15604;BME280;7902;49.042;9.092;2023-08-17T03:14:55;99104.00;;;25.21;65.69
15604;BME280;7902;49.042;9.092;2023-08-17T03:17:21;99094.28;;;25.26;65.43
15604;BME280;7902;49.042;9.092;2023-08-17T03:19:47;99102.34;;;25.26;65.52
15604;BME280;7902;49.042;9.092;2023-08-17T03:22:13;99105.66;;;25.22;65.65
15604;BME280;7902;49.042;9.092;2023-08-17T03:24:38;99097.16;;;25.25;65.44
15604;BME280;7902;49.042;9.092;2023-08-17T03:27:04;99098.41;;;25.22;65.50
15604;BME280;7902;49.042;9.092;2023-08-17T03:29:30;99096.56;;;25.23;65.50
15604;BME280;7902;49.042;9.092;2023-08-17T03:31:56;99103.38;;;25.19;65.72
15604;BME280;7902;49.042;9.092;2023-08-17T03:34:22;99098.00;;;25.19;65.79
15604;BME280;7902;49.042;9.092;2023-08-17T03:36:48;99105.44;;;25.17;65.87
15604;BME280;7902;49.042;9.092;2023-08-17T03:39:14;99096.56;;;25.23;65.74
15604;BME280;7902;49.042;9.092;2023-08-17T03:41:41;99099.84;;;25.25;65.66
15604;BME280;7902;49.042;9.092;2023-08-17T03:44:07;99102.53;;;25.25;65.73
15604;BME280;7902;49.042;9.092;2023-08-17T03:46:33;99101.31;;;25.21;65.81
15604;BME280;7902;49.042;9.092;2023-08-17T03:48:59;99097.19;;;25.18;65.67
15604;BME280;7902;49.042;9.092;2023-08-17T03:51:25;99104.63;;;25.23;65.63
15604;BME280;7902;49.042;9.092;2023-08-17T03:53:51;99099.63;;;25.20;65.61
15604;BME280;7902;49.042;9.092;2023-08-17T03:56:18;99112.84;;;25.15;65.65
15604;BME280;7902;49.042;9.092;2023-08-17T03:58:44;99110.16;;;25.15;65.70
15604;BME280;7902;49.042;9.092;2023-08-17T04:01:10;99116.59;;;25.20;65.67
15604;BME280;7902;49.042;9.092;2023-08-17T04:03:37;99118.44;;;25.20;65.67
15604;BME280;7902;49.042;9.092;2023-08-17T04:06:06;99118.88;;;25.17;65.81
15604;BME280;7902;49.042;9.092;2023-08-17T04:08:32;99117.00;;;25.17;65.79
15604;BME280;7902;49.042;9.092;2023-08-17T04:10:58;99119.91;;;25.16;65.96
15604;BME280;7902;49.042;9.092;2023-08-17T04:13:24;99119.28;;;25.14;65.91
15604;BME280;7902;49.042;9.092;2023-08-17T04:15:50;99126.09;;;25.16;65.79
15604;BME280;7902;49.042;9.092;2023-08-17T04:18:16;99121.97;;;25.14;66.09
15604;BME280;7902;49.042;9.092;2023-08-17T04:20:42;99123.84;;;25.13;66.01
15604;BME280;7902;49.042;9.092;2023-08-17T04:23:08;99129.81;;;25.15;65.90
15604;BME280;7902;49.042;9.092;2023-08-17T04:25:33;99123.22;;;25.18;65.76
15604;BME280;7902;49.042;9.092;2023-08-17T04:27:59;99120.91;;;25.15;65.92
15604;BME280;7902;49.042;9.092;2023-08-17T04:30:25;99126.50;;;25.20;65.85
15604;BME280;7902;49.042;9.092;2023-08-17T04:32:51;99130.03;;;25.20;65.85
15604;BME280;7902;49.042;9.092;2023-08-17T04:35:19;99132.50;;;25.15;66.08
15604;BME280;7902;49.042;9.092;2023-08-17T04:37:45;99123.84;;;25.13;66.18
15604;BME280;7902;49.042;9.092;2023-08-17T04:40:11;99125.88;;;25.11;66.23
15604;BME280;7902;49.042;9.092;2023-08-17T04:42:36;99140.56;;;25.09;66.43
15604;BME280;7902;49.042;9.092;2023-08-17T04:45:02;99135.81;;;25.11;66.37
15604;BME280;7902;49.042;9.092;2023-08-17T04:47:28;99135.22;;;25.22;65.90
15604;BME280;7902;49.042;9.092;2023-08-17T04:49:54;99136.88;;;25.23;66.05
15604;BME280;7902;49.042;9.092;2023-08-17T04:52:20;99144.31;;;25.21;65.74
15604;BME280;7902;49.042;9.092;2023-08-17T04:54:46;99155.47;;;25.24;65.68
15604;BME280;7902;49.042;9.092;2023-08-17T04:57:12;99159.41;;;25.22;65.68
15604;BME280;7902;49.042;9.092;2023-08-17T04:59:38;99149.91;;;25.32;65.42
15604;BME280;7902;49.042;9.092;2023-08-17T05:02:04;99150.91;;;25.25;65.28
15604;BME280;7902;49.042;9.092;2023-08-17T05:04:30;99154.03;;;25.22;65.41
15604;BME280;7902;49.042;9.092;2023-08-17T05:06:56;99150.94;;;25.18;65.34
15604;BME280;7902;49.042;9.092;2023-08-17T05:09:22;99147.59;;;25.16;65.49
15604;BME280;7902;49.042;9.092;2023-08-17T05:11:48;99151.75;;;25.25;65.27
15604;BME280;7902;49.042;9.092;2023-08-17T05:14:14;99149.69;;;25.34;64.72
15604;BME280;7902;49.042;9.092;2023-08-17T05:16:40;99150.28;;;25.16;65.09
15604;BME280;7902;49.042;9.092;2023-08-17T05:19:06;99151.09;;;25.10;65.40
15604;BME280;7902;49.042;9.092;2023-08-17T05:21:32;99155.44;;;25.11;65.29
15604;BME280;7902;49.042;9.092;2023-08-17T05:23:58;99144.72;;;25.18;64.84
15604;BME280;7902;49.042;9.092;2023-08-17T05:26:23;99150.06;;;25.11;65.35
15604;BME280;7902;49.042;9.092;2023-08-17T05:28:49;99146.56;;;25.04;65.51
15604;BME280;7902;49.042;9.092;2023-08-17T05:31:15;99155.03;;;25.08;65.52
15604;BME280;7902;49.042;9.092;2023-08-17T05:33:41;99156.28;;;25.12;65.11
15604;BME280;7902;49.042;9.092;2023-08-17T05:36:07;99159.16;;;25.04;65.31
15604;BME280;7902;49.042;9.092;2023-08-17T05:38:33;99155.00;;;24.95;65.61
15604;BME280;7902;49.042;9.092;2023-08-17T05:40:59;99155.38;;;24.91;65.90
15604;BME280;7902;49.042;9.092;2023-08-17T05:43:27;99152.91;;;24.90;65.97
15604;BME280;7902;49.042;9.092;2023-08-17T05:45:53;99149.78;;;24.86;66.08
15604;BME280;7902;49.042;9.092;2023-08-17T05:48:19;99155.78;;;24.88;65.84
15604;BME280;7902;49.042;9.092;2023-08-17T05:50:47;99164.69;;;24.89;65.95
15604;BME280;7902;49.042;9.092;2023-08-17T05:53:12;99165.50;;;24.89;65.82
15604;BME280;7902;49.042;9.092;2023-08-17T05:55:38;99171.13;;;24.95;65.91
15604;BME280;7902;49.042;9.092;2023-08-17T05:58:04;99162.94;;;24.81;66.23
15604;BME280;7902;49.042;9.092;2023-08-17T06:00:30;99167.56;;;24.87;66.20
15604;BME280;7902;49.042;9.092;2023-08-17T06:02:56;99168.19;;;24.89;66.17
15604;BME280;7902;49.042;9.092;2023-08-17T06:05:30;99166.91;;;24.85;66.06
15604;BME280;7902;49.042;9.092;2023-08-17T06:07:56;99178.13;;;24.89;65.92
15604;BME280;7902;49.042;9.092;2023-08-17T06:10:23;99176.06;;;24.98;65.82
15604;BME280;7902;49.042;9.092;2023-08-17T06:12:53;99179.78;;;24.97;65.84
15604;BME280;7902;49.042;9.092;2023-08-17T06:15:19;99170.28;;;24.94;65.88
15604;BME280;7902;49.042;9.092;2023-08-17T06:17:45;99178.34;;;25.01;65.61
15604;BME280;7902;49.042;9.092;2023-08-17T06:20:12;99186.63;;;25.06;65.81
15604;BME280;7902;49.042;9.092;2023-08-17T06:22:38;99183.94;;;25.06;65.66
15604;BME280;7902;49.042;9.092;2023-08-17T06:25:04;99179.81;;;25.03;65.69
15604;BME280;7902;49.042;9.092;2023-08-17T06:27:32;99179.63;;;25.11;65.51
15604;BME280;7902;49.042;9.092;2023-08-17T06:29:58;99183.97;;;25.12;65.50
15604;BME280;7902;49.042;9.092;2023-08-17T06:32:23;99179.00;;;25.09;65.75
15604;BME280;7902;49.042;9.092;2023-08-17T06:34:49;99177.97;;;25.10;65.75
15604;BME280;7902;49.042;9.092;2023-08-17T06:37:15;99181.91;;;25.08;65.97
15604;BME280;7902;49.042;9.092;2023-08-17T06:39:41;99167.66;;;25.14;65.71
15604;BME280;7902;49.042;9.092;2023-08-17T06:42:07;99172.41;;;25.12;65.87
15604;BME280;7902;49.042;9.092;2023-08-17T06:44:33;99175.28;;;25.04;65.80
15604;BME280;7902;49.042;9.092;2023-08-17T06:46:59;99175.28;;;25.10;65.99
15604;BME280;7902;49.042;9.092;2023-08-17T06:49:26;99170.56;;;25.19;65.71
15604;BME280;7902;49.042;9.092;2023-08-17T06:51:51;99170.59;;;25.32;65.18
15604;BME280;7902;49.042;9.092;2023-08-17T06:54:17;99179.25;;;25.34;65.01
15604;BME280;7902;49.042;9.092;2023-08-17T06:56:43;99174.91;;;25.26;65.54
15604;BME280;7902;49.042;9.092;2023-08-17T06:59:09;99170.75;;;25.24;65.50
15604;BME280;7902;49.042;9.092;2023-08-17T07:01:35;99176.97;;;25.24;65.74
15604;BME280;7902;49.042;9.092;2023-08-17T07:04:02;99181.31;;;25.25;65.66
15604;BME280;7902;49.042;9.092;2023-08-17T07:06:28;99171.41;;;25.26;65.79
15604;BME280;7902;49.042;9.092;2023-08-17T07:08:54;99179.25;;;25.21;65.99
15604;BME280;7902;49.042;9.092;2023-08-17T07:11:20;99182.56;;;25.29;65.99
15604;BME280;7902;49.042;9.092;2023-08-17T07:13:46;99184.88;;;25.32;66.03
15604;BME280;7902;49.042;9.092;2023-08-17T07:16:13;99178.69;;;25.45;65.52
15604;BME280;7902;49.042;9.092;2023-08-17T07:18:39;99184.88;;;25.46;65.43
15604;BME280;7902;49.042;9.092;2023-08-17T07:21:05;99190.72;;;25.62;65.15
15604;BME280;7902;49.042;9.092;2023-08-17T07:23:31;99186.13;;;25.50;65.73
15604;BME280;7902;49.042;9.092;2023-08-17T07:25:57;99177.88;;;25.51;65.84
15604;BME280;7902;49.042;9.092;2023-08-17T07:28:23;99185.75;;;25.59;65.14
15604;BME280;7902;49.042;9.092;2023-08-17T07:30:49;99190.13;;;25.60;65.40
15604;BME280;7902;49.042;9.092;2023-08-17T07:33:15;99185.78;;;25.66;65.51
15604;BME280;7902;49.042;9.092;2023-08-17T07:35:41;99190.53;;;25.70;65.78
15604;BME280;7902;49.042;9.092;2023-08-17T07:38:07;99191.16;;;25.66;66.17
15604;BME280;7902;49.042;9.092;2023-08-17T07:40:33;99186.19;;;25.69;65.91
15604;BME280;7902;49.042;9.092;2023-08-17T07:42:59;99189.28;;;25.73;65.69
15604;BME280;7902;49.042;9.092;2023-08-17T07:45:25;99191.16;;;25.66;65.79
15604;BME280;7902;49.042;9.092;2023-08-17T07:47:51;99182.84;;;25.54;66.66
15604;BME280;7902;49.042;9.092;2023-08-17T07:50:17;99175.84;;;25.80;65.31
15604;BME280;7902;49.042;9.092;2023-08-17T07:52:42;99182.03;;;25.87;65.73
15604;BME280;7902;49.042;9.092;2023-08-17T07:55:08;99184.13;;;25.85;65.29
15604;BME280;7902;49.042;9.092;2023-08-17T07:57:34;99177.69;;;25.59;66.87
15604;BME280;7902;49.042;9.092;2023-08-17T08:00:00;99172.53;;;25.77;66.01
15604;BME280;7902;49.042;9.092;2023-08-17T08:02:26;99176.44;;;25.95;65.26
15604;BME280;7902;49.042;9.092;2023-08-17T08:04:52;99177.28;;;25.89;66.01
15604;BME280;7902;49.042;9.092;2023-08-17T08:07:18;99180.78;;;25.96;65.10
15604;BME280;7902;49.042;9.092;2023-08-17T08:09:44;99175.41;;;25.96;65.32
15604;BME280;7902;49.042;9.092;2023-08-17T08:12:10;99173.34;;;25.91;65.40
15604;BME280;7902;49.042;9.092;2023-08-17T08:14:35;99166.09;;;25.85;66.09
15604;BME280;7902;49.042;9.092;2023-08-17T08:17:01;99165.69;;;25.95;66.27
15604;BME280;7902;49.042;9.092;2023-08-17T08:19:27;99171.72;;;25.84;66.13
15604;BME280;7902;49.042;9.092;2023-08-17T08:21:53;99162.59;;;25.85;66.44
15604;BME280;7902;49.042;9.092;2023-08-17T08:24:19;99162.19;;;25.94;65.95
15604;BME280;7902;49.042;9.092;2023-08-17T08:26:45;99165.06;;;26.06;65.68
15604;BME280;7902;49.042;9.092;2023-08-17T08:29:11;99164.44;;;26.04;65.71
15604;BME280;7902;49.042;9.092;2023-08-17T08:31:37;99166.09;;;26.05;65.64
15604;BME280;7902;49.042;9.092;2023-08-17T08:34:03;99166.31;;;25.97;65.43
15604;BME280;7902;49.042;9.092;2023-08-17T08:36:29;99169.63;;;25.99;65.40
15604;BME280;7902;49.042;9.092;2023-08-17T08:38:55;99168.59;;;26.06;65.20
15604;BME280;7902;49.042;9.092;2023-08-17T08:41:21;99177.66;;;26.18;65.72
15604;BME280;7902;49.042;9.092;2023-08-17T08:43:47;99173.13;;;26.19;65.65
15604;BME280;7902;49.042;9.092;2023-08-17T08:46:16;99175.44;;;26.22;65.49
15604;BME280;7902;49.042;9.092;2023-08-17T08:48:45;99177.69;;;26.12;65.83
15604;BME280;7902;49.042;9.092;2023-08-17T08:51:13;99177.28;;;26.22;65.33
15604;BME280;7902;49.042;9.092;2023-08-17T08:53:45;99172.06;;;26.33;64.66
15604;BME280;7902;49.042;9.092;2023-08-17T08:56:11;99170.25;;;26.27;65.35
15604;BME280;7902;49.042;9.092;2023-08-17T08:58:41;99166.66;;;26.46;64.40
15604;BME280;7902;49.042;9.092;2023-08-17T09:01:10;99171.66;;;26.43;65.17
15604;BME280;7902;49.042;9.092;2023-08-17T09:03:36;99171.63;;;26.49;63.60
15604;BME280;7902;49.042;9.092;2023-08-17T09:06:03;99176.59;;;26.59;64.26
15604;BME280;7902;49.042;9.092;2023-08-17T09:08:30;99166.00;;;26.57;64.35
15604;BME280;7902;49.042;9.092;2023-08-17T09:10:57;99168.69;;;26.64;64.08
15604;BME280;7902;49.042;9.092;2023-08-17T09:13:23;99168.91;;;26.56;64.98
15604;BME280;7902;49.042;9.092;2023-08-17T09:15:49;99168.25;;;26.67;64.72
15604;BME280;7902;49.042;9.092;2023-08-17T09:18:16;99158.38;;;26.48;64.94
15604;BME280;7902;49.042;9.092;2023-08-17T09:20:44;99167.41;;;26.73;63.49
15604;BME280;7902;49.042;9.092;2023-08-17T09:23:19;99168.00;;;26.82;63.59
15604;BME280;7902;49.042;9.092;2023-08-17T09:25:46;99159.50;;;26.91;64.19
15604;BME280;7902;49.042;9.092;2023-08-17T09:28:14;99161.97;;;26.93;63.79
15604;BME280;7902;49.042;9.092;2023-08-17T09:30:54;99164.88;;;26.85;64.38
15604;BME280;7902;49.042;9.092;2023-08-17T09:33:28;99158.19;;;27.00;63.58
15604;BME280;7902;49.042;9.092;2023-08-17T09:35:56;99154.81;;;26.60;64.55
15604;BME280;7902;49.042;9.092;2023-08-17T09:38:23;99158.13;;;26.56;64.96
15604;BME280;7902;49.042;9.092;2023-08-17T09:40:53;99157.03;;;26.70;64.19
15604;BME280;7902;49.042;9.092;2023-08-17T09:43:19;99147.25;;;26.31;65.68
15604;BME280;7902;49.042;9.092;2023-08-17T09:45:49;99147.16;;;26.57;64.78
15604;BME280;7902;49.042;9.092;2023-08-17T09:48:20;99156.28;;;26.56;64.75
15604;BME280;7902;49.042;9.092;2023-08-17T09:50:48;99150.88;;;26.70;64.18
15604;BME280;7902;49.042;9.092;2023-08-17T09:53:15;99153.66;;;26.94;63.75
15604;BME280;7902;49.042;9.092;2023-08-17T09:55:42;99144.94;;;26.99;63.83
15604;BME280;7902;49.042;9.092;2023-08-17T09:58:09;99143.53;;;26.90;63.98
15604;BME280;7902;49.042;9.092;2023-08-17T10:00:35;99141.50;;;26.79;64.10
15604;BME280;7902;49.042;9.092;2023-08-17T10:03:02;99136.72;;;26.87;64.05
15604;BME280;7902;49.042;9.092;2023-08-17T10:05:35;99134.09;;;27.12;63.44
15604;BME280;7902;49.042;9.092;2023-08-17T10:08:13;99135.50;;;27.21;63.12
15604;BME280;7902;49.042;9.092;2023-08-17T10:10:50;99134.09;;;27.12;62.87
15604;BME280;7902;49.042;9.092;2023-08-17T10:16:10;99127.59;;;26.82;64.41
15604;BME280;7902;49.042;9.092;2023-08-17T10:18:43;99127.69;;;27.38;62.73
15604;BME280;7902;49.042;9.092;2023-08-17T10:21:28;99132.59;;;27.47;62.59
15604;BME280;7902;49.042;9.092;2023-08-17T10:23:57;99140.03;;;27.59;62.69
15604;BME280;7902;49.042;9.092;2023-08-17T10:26:24;99122.34;;;27.63;62.38
15604;BME280;7902;49.042;9.092;2023-08-17T10:28:52;99132.09;;;27.64;61.66
15604;BME280;7902;49.042;9.092;2023-08-17T10:31:20;99129.53;;;27.69;62.10
15604;BME280;7902;49.042;9.092;2023-08-17T10:33:46;99125.75;;;27.76;61.92
15604;BME280;7902;49.042;9.092;2023-08-17T10:36:14;99130.38;;;27.94;61.34
15604;BME280;7902;49.042;9.092;2023-08-17T10:38:40;99136.84;;;27.68;61.65
15604;BME280;7902;49.042;9.092;2023-08-17T10:41:11;99133.25;;;27.49;62.10
15604;BME280;7902;49.042;9.092;2023-08-17T10:43:59;99133.97;;;27.63;61.17
15604;BME280;7902;49.042;9.092;2023-08-17T10:46:35;99122.22;;;27.76;61.17
15604;BME280;7902;49.042;9.092;2023-08-17T10:49:03;99124.91;;;28.01;60.94
15604;BME280;7902;49.042;9.092;2023-08-17T10:51:30;99119.94;;;27.98;60.89
15604;BME280;7902;49.042;9.092;2023-08-17T10:53:59;99124.28;;;27.99;60.72
15604;BME280;7902;49.042;9.092;2023-08-17T10:56:27;99121.59;;;28.23;60.23
15604;BME280;7902;49.042;9.092;2023-08-17T10:59:00;99113.72;;;28.22;59.89
15604;BME280;7902;49.042;9.092;2023-08-17T11:01:31;99108.41;;;28.09;60.48
15604;BME280;7902;49.042;9.092;2023-08-17T11:06:37;99114.69;;;28.46;59.38
15604;BME280;7902;49.042;9.092;2023-08-17T11:09:07;99116.56;;;28.27;59.34
15604;BME280;7902;49.042;9.092;2023-08-17T11:11:33;99118.88;;;28.60;58.63
15604;BME280;7902;49.042;9.092;2023-08-17T11:13:59;99111.09;;;28.33;59.00
15604;BME280;7902;49.042;9.092;2023-08-17T11:16:25;99107.84;;;28.61;57.55
15604;BME280;7902;49.042;9.092;2023-08-17T11:18:51;99108.59;;;28.50;57.58
15604;BME280;7902;49.042;9.092;2023-08-17T11:21:17;99101.00;;;28.59;57.44
15604;BME280;7902;49.042;9.092;2023-08-17T11:23:43;99105.00;;;28.56;57.70
15604;BME280;7902;49.042;9.092;2023-08-17T11:26:10;99107.03;;;28.61;58.19
15604;BME280;7902;49.042;9.092;2023-08-17T11:28:36;99105.03;;;28.68;57.58
15604;BME280;7902;49.042;9.092;2023-08-17T11:31:03;99096.78;;;28.63;58.19
15604;BME280;7902;49.042;9.092;2023-08-17T11:33:30;99089.75;;;28.80;57.43
15604;BME280;7902;49.042;9.092;2023-08-17T11:35:57;99098.28;;;28.95;56.73
15604;BME280;7902;49.042;9.092;2023-08-17T11:38:24;99097.19;;;29.14;56.38
15604;BME280;7902;49.042;9.092;2023-08-17T11:40:50;99110.91;;;28.83;55.88
15604;BME280;7902;49.042;9.092;2023-08-17T11:43:16;99108.63;;;28.98;56.42
15604;BME280;7902;49.042;9.092;2023-08-17T11:45:43;99111.94;;;29.00;56.01
15604;BME280;7902;49.042;9.092;2023-08-17T11:48:09;99113.97;;;29.05;56.21
15604;BME280;7902;49.042;9.092;2023-08-17T11:50:35;99112.25;;;28.92;56.93
15604;BME280;7902;49.042;9.092;2023-08-17T11:53:02;99099.75;;;29.21;56.00
15604;BME280;7902;49.042;9.092;2023-08-17T11:55:28;99092.94;;;29.18;56.06
15604;BME280;7902;49.042;9.092;2023-08-17T11:57:54;99096.44;;;29.37;55.87
15604;BME280;7902;49.042;9.092;2023-08-17T12:00:21;99101.94;;;29.31;56.58
15604;BME280;7902;49.042;9.092;2023-08-17T12:02:48;99098.81;;;29.45;56.46
15604;BME280;7902;49.042;9.092;2023-08-17T12:05:19;99099.28;;;29.54;56.56
15604;BME280;7902;49.042;9.092;2023-08-17T12:07:45;99099.50;;;29.52;56.03
15604;BME280;7902;49.042;9.092;2023-08-17T12:10:11;99109.16;;;29.48;55.93
15604;BME280;7902;49.042;9.092;2023-08-17T12:12:37;99113.78;;;29.71;54.87
15604;BME280;7902;49.042;9.092;2023-08-17T12:15:05;99112.28;;;29.98;54.50
15604;BME280;7902;49.042;9.092;2023-08-17T12:17:31;99111.81;;;30.01;54.11
15604;BME280;7902;49.042;9.092;2023-08-17T12:19:58;99121.56;;;29.79;54.25
15604;BME280;7902;49.042;9.092;2023-08-17T12:22:25;99108.84;;;29.80;53.84
15604;BME280;7902;49.042;9.092;2023-08-17T12:24:52;99106.16;;;29.91;54.08
15604;BME280;7902;49.042;9.092;2023-08-17T12:27:18;99115.22;;;30.08;54.03
15604;BME280;7902;49.042;9.092;2023-08-17T12:29:46;99118.47;;;29.87;55.64
15604;BME280;7902;49.042;9.092;2023-08-17T12:32:14;99124.06;;;30.04;55.58
15604;BME280;7902;49.042;9.092;2023-08-17T12:34:41;99121.91;;;29.83;55.67
15604;BME280;7902;49.042;9.092;2023-08-17T12:37:11;99128.97;;;29.84;56.32
15604;BME280;7902;49.042;9.092;2023-08-17T12:39:37;99126.72;;;29.69;56.89
15604;BME280;7902;49.042;9.092;2023-08-17T12:42:04;99126.22;;;29.49;57.38
15604;BME280;7902;49.042;9.092;2023-08-17T12:44:30;99118.16;;;29.31;57.42
15604;BME280;7902;49.042;9.092;2023-08-17T12:46:55;99125.00;;;29.33;57.64
15604;BME280;7902;49.042;9.092;2023-08-17T12:49:23;99124.31;;;29.19;57.84
15604;BME280;7902;49.042;9.092;2023-08-17T12:51:49;99131.44;;;29.02;59.11
15604;BME280;7902;49.042;9.092;2023-08-17T12:54:15;99145.44;;;28.99;58.88
15604;BME280;7902;49.042;9.092;2023-08-17T12:56:41;99143.13;;;28.85;58.81
15604;BME280;7902;49.042;9.092;2023-08-17T12:59:07;99140.50;;;28.78;59.07
15604;BME280;7902;49.042;9.092;2023-08-17T13:01:33;99138.56;;;28.67;59.17
15604;BME280;7902;49.042;9.092;2023-08-17T13:03:59;99144.03;;;28.60;58.57
15604;BME280;7902;49.042;9.092;2023-08-17T13:06:25;99137.78;;;28.60;58.20
15604;BME280;7902;49.042;9.092;2023-08-17T13:08:51;99136.66;;;28.49;58.08
15604;BME280;7902;49.042;9.092;2023-08-17T13:11:17;99141.91;;;28.44;58.59
15604;BME280;7902;49.042;9.092;2023-08-17T13:13:43;99141.47;;;28.29;58.46